Time;durP1;ratioP1;P1;durP2;ratioP2;P2;SDS_P1;SDS_P2;PMS_P1;PMS_P2;Temp;Humidity;BMP_temperature;BMP_pressure;BME280_temperature;BME280_humidity;BME280_pressure;Samples;Min_cycle;Max_cycle;Signal;HPM_P1;HPM_P2
2023/12/14 00:05:29;;;;;;;3.25;1.30;;;;;;;;;;6064191;23;20006;-91
2023/12/14 00:08:19;;;;;;;3.53;1.50;;;;;;;;;;6134869;23;20000;-91
2023/12/14 01:04:45;;;;;;;3.00;1.48;;;;;;;;;;5937700;24;20016;-91
2023/12/14 01:07:14;;;;;;;4.20;1.83;;;;;;;;;;6060613;23;20035;-91
2023/12/14 01:09:59;;;;;;;10.45;3.17;;;;;;;;;;6231659;23;20714;-90
2023/12/14 01:12:45;;;;;;;6.30;2.10;;;;;;;;;;6189352;23;19996;-91
2023/12/14 01:15:33;;;;;;;3.15;1.60;;;;;;;;;;6209168;23;20022;-91
2023/12/14 01:18:18;;;;;;;3.60;1.42;;;;;;;;;;6208485;23;20055;-92
2023/12/14 01:27:41;;;;;;;2.83;1.80;;;;;;;;;;6205424;23;19996;-90
2023/12/14 01:30:27;;;;;;;6.32;2.45;;;;;;;;;;6187765;23;20080;-90
2023/12/14 01:33:12;;;;;;;3.65;2.30;;;;;;;;;;6208700;23;20007;-91
2023/12/14 01:35:58;;;;;;;5.53;2.20;;;;;;;;;;6208381;23;20004;-91
2023/12/14 01:38:43;;;;;;;4.30;1.83;;;;;;;;;;6185589;23;20008;-91
2023/12/14 01:41:28;;;;;;;6.13;1.45;;;;;;;;;;6208148;23;20396;-91
2023/12/14 01:44:14;;;;;;;4.63;2.10;;;;;;;;;;6208715;23;20001;-90
2023/12/14 01:46:59;;;;;;;2.17;1.50;;;;;;;;;;6207922;23;20001;-89
2023/12/14 01:49:44;;;;;;;3.47;1.98;;;;;;;;;;6207198;23;20036;-90
2023/12/14 01:52:30;;;;;;;4.28;1.70;;;;;;;;;;6213746;23;20046;-90
2023/12/14 01:55:38;;;;;;;3.83;1.58;;;;;;;;;;6204005;23;20075;-91
2023/12/14 01:58:26;;;;;;;3.42;1.33;;;;;;;;;;6224134;23;20003;-91
2023/12/14 02:01:17;;;;;;;2.30;1.58;;;;;;;;;;6221838;23;19996;-91
2023/12/14 02:04:12;;;;;;;4.35;2.00;;;;;;;;;;6210514;23;20024;-91
2023/12/14 02:25:22;;;;;;;1.40;1.25;;;;;;;;;;5783350;24;20021;-89
2023/12/14 02:28:08;;;;;;;1.80;1.20;;;;;;;;;;5814342;24;20006;-89
2023/12/14 02:30:53;;;;;;;3.22;1.60;;;;;;;;;;6040093;23;20657;-89
2023/12/14 02:33:38;;;;;;;5.60;1.35;;;;;;;;;;6208979;23;20004;-89
2023/12/14 02:36:24;;;;;;;2.95;1.35;;;;;;;;;;6207283;23;20373;-89
2023/12/14 02:39:09;;;;;;;2.25;1.27;;;;;;;;;;6206769;23;20028;-90
2023/12/14 02:41:54;;;;;;;1.83;0.90;;;;;;;;;;6208624;23;19992;-89
2023/12/14 02:44:43;;;;;;;2.00;1.50;;;;;;;;;;6120683;23;20395;-89
2023/12/14 02:47:28;;;;;;;2.85;1.70;;;;;;;;;;6209630;23;20000;-89
2023/12/14 02:50:14;;;;;;;3.70;1.75;;;;;;;;;;6210358;23;20004;-90
2023/12/14 02:52:59;;;;;;;2.67;1.55;;;;;;;;;;6232139;23;20012;-90
2023/12/14 02:55:44;;;;;;;3.33;1.60;;;;;;;;;;6186398;23;20028;-89
2023/12/14 02:58:30;;;;;;;1.90;1.00;;;;;;;;;;6208933;23;20000;-90
2023/12/14 03:01:15;;;;;;;1.45;1.17;;;;;;;;;;6208296;23;20445;-89
2023/12/14 03:04:01;;;;;;;3.97;1.30;;;;;;;;;;6211191;23;20004;-89
2023/12/14 03:06:46;;;;;;;4.53;1.23;;;;;;;;;;6214109;23;19996;-89
2023/12/14 03:09:32;;;;;;;3.42;1.40;;;;;;;;;;6210111;23;20059;-90
2023/12/14 03:12:17;;;;;;;2.58;1.13;;;;;;;;;;6210672;23;20652;-89
2023/12/14 03:15:03;;;;;;;1.98;1.10;;;;;;;;;;6210209;23;20051;-88
2023/12/14 03:17:48;;;;;;;1.38;0.90;;;;;;;;;;6210131;23;20013;-88
2023/12/14 03:20:33;;;;;;;3.55;1.08;;;;;;;;;;6210079;23;20000;-88
2023/12/14 03:23:19;;;;;;;3.17;1.10;;;;;;;;;;6189392;23;20067;-88
2023/12/14 03:26:04;;;;;;;1.33;0.90;;;;;;;;;;6167588;23;20003;-88
2023/12/14 03:28:49;;;;;;;2.10;0.90;;;;;;;;;;6210301;23;19996;-89
2023/12/14 03:31:35;;;;;;;4.45;1.02;;;;;;;;;;6209421;23;20035;-88
2023/12/14 03:34:20;;;;;;;5.63;1.65;;;;;;;;;;6210672;23;20000;-90
2023/12/14 03:37:06;;;;;;;1.30;1.08;;;;;;;;;;6209253;23;20063;-89
2023/12/14 03:40:01;;;;;;;2.85;1.00;;;;;;;;;;6210269;23;20023;-89
2023/12/14 03:42:51;;;;;;;4.78;1.27;;;;;;;;;;6210263;23;20425;-89
2023/12/14 03:46:05;;;;;;;2.72;1.10;;;;;;;;;;6210108;23;20011;-89
2023/12/14 03:59:34;;;;;;;3.03;1.40;;;;;;;;;;6123495;23;20036;-90
2023/12/14 04:05:44;;;;;;;2.80;1.10;;;;;;;;;;6120808;23;20695;-90
2023/12/14 04:08:29;;;;;;;1.65;1.05;;;;;;;;;;6187856;23;20031;-89
2023/12/14 04:11:15;;;;;;;2.78;1.35;;;;;;;;;;6187439;23;20068;-89
2023/12/14 04:14:00;;;;;;;3.33;1.00;;;;;;;;;;6189053;23;20008;-90
2023/12/14 04:16:52;;;;;;;2.33;1.30;;;;;;;;;;6187889;23;20016;-87
2023/12/14 04:19:46;;;;;;;2.70;1.65;;;;;;;;;;6183627;23;20082;-91
2023/12/14 04:22:34;;;;;;;4.75;2.22;;;;;;;;;;6208818;23;20557;-91
2023/12/14 04:25:49;;;;;;;2.10;1.20;;;;;;;;;;6210212;23;20000;-91
2023/12/14 04:28:37;;;;;;;2.45;1.17;;;;;;;;;;6150901;23;20208;-91
2023/12/14 04:31:23;;;;;;;1.75;1.27;;;;;;;;;;6208380;23;19993;-92
2023/12/14 04:34:11;;;;;;;2.38;1.50;;;;;;;;;;6206344;23;20000;-91
2023/12/14 04:36:57;;;;;;;4.38;1.38;;;;;;;;;;6210802;23;20042;-90
2023/12/14 04:39:45;;;;;;;3.58;1.85;;;;;;;;;;6211633;23;19996;-91
2023/12/14 04:46:33;;;;;;;4.35;2.25;;;;;;;;;;6096442;23;20074;-91
2023/12/14 05:08:30;;;;;;;;;;;;;;;;;;;;;
2023/12/14 05:16:28;;;;;;;3.22;2.15;;;;;;;;;;6213092;23;20052;-91
2023/12/14 05:40:22;;;;;;;8.73;3.45;;;;;;;;;;6057217;23;20053;-90
2023/12/14 05:43:15;;;;;;;7.88;3.47;;;;;;;;;;6044020;23;19998;-90
2023/12/14 05:46:34;;;;;;;6.30;3.45;;;;;;;;;;6125055;23;20001;-90
2023/12/14 06:06:45;;;;;;;6.03;3.05;;;;;;;;;;6086781;23;20448;-87
2023/12/14 06:09:34;;;;;;;5.03;2.88;;;;;;;;;;6097093;23;20077;-86
2023/12/14 06:12:20;;;;;;;5.00;2.67;;;;;;;;;;6216782;23;20060;-86
2023/12/14 06:15:05;;;;;;;7.00;3.30;;;;;;;;;;6196646;23;20219;-86
2023/12/14 06:17:51;;;;;;;5.57;3.45;;;;;;;;;;6217341;23;20054;-87
2023/12/14 06:20:36;;;;;;;7.47;3.13;;;;;;;;;;6217123;23;20012;-88
2023/12/14 06:23:21;;;;;;;7.70;3.70;;;;;;;;;;6216998;23;20000;-89
2023/12/14 06:26:07;;;;;;;5.32;3.20;;;;;;;;;;6217993;23;20007;-88
2023/12/14 06:28:52;;;;;;;6.95;3.40;;;;;;;;;;6217721;23;20003;-88
2023/12/14 06:31:38;;;;;;;8.65;3.58;;;;;;;;;;6217068;23;20014;-88
2023/12/14 06:34:23;;;;;;;10.77;3.50;;;;;;;;;;6239131;23;19996;-89
2023/12/14 06:37:09;;;;;;;7.05;3.38;;;;;;;;;;6217695;23;19996;-89
2023/12/14 06:39:54;;;;;;;7.95;3.72;;;;;;;;;;6217354;23;20000;-86
2023/12/14 06:42:39;;;;;;;6.13;3.28;;;;;;;;;;6216624;23;20007;-86
2023/12/14 06:48:47;;;;;;;10.40;3.38;;;;;;;;;;6240511;23;20423;-88
2023/12/14 06:51:33;;;;;;;6.65;4.15;;;;;;;;;;6215963;23;20003;-89
2023/12/14 06:54:21;;;;;;;8.52;4.25;;;;;;;;;;6216927;23;20003;-90
2023/12/14 06:57:06;;;;;;;7.30;4.57;;;;;;;;;;6210735;23;20012;-89
2023/12/14 06:59:52;;;;;;;9.43;4.70;;;;;;;;;;6214663;23;20000;-88
2023/12/14 07:02:37;;;;;;;6.25;3.78;;;;;;;;;;6215458;23;20000;-87
2023/12/14 07:05:57;;;;;;;8.18;4.05;;;;;;;;;;6217478;23;19996;-88
2023/12/14 07:08:43;;;;;;;11.95;5.72;;;;;;;;;;6214362;23;20026;-84
2023/12/14 07:11:29;;;;;;;13.65;6.03;;;;;;;;;;6218236;23;20378;-88
2023/12/14 07:14:17;;;;;;;7.93;4.82;;;;;;;;;;6212005;23;20072;-87
2023/12/14 07:17:23;;;;;;;9.93;4.10;;;;;;;;;;6217336;23;20019;-90
2023/12/14 07:20:09;;;;;;;6.93;4.38;;;;;;;;;;6219527;23;19996;-89
2023/12/14 07:23:39;;;;;;;11.52;5.25;;;;;;;;;;6217617;23;19996;-90
2023/12/14 07:26:24;;;;;;;9.73;5.45;;;;;;;;;;6150526;23;20094;-87
2023/12/14 07:29:09;;;;;;;6.80;4.60;;;;;;;;;;6219271;23;20375;-88
2023/12/14 07:32:43;;;;;;;6.28;3.92;;;;;;;;;;6222399;23;20089;-90
2023/12/14 07:35:47;;;;;;;10.98;4.68;;;;;;;;;;6132415;23;20052;-91
2023/12/14 07:38:32;;;;;;;8.25;4.18;;;;;;;;;;6192586;23;20456;-88
2023/12/14 07:41:18;;;;;;;8.40;4.65;;;;;;;;;;6230586;23;19984;-84
2023/12/14 07:44:14;;;;;;;11.07;4.55;;;;;;;;;;6244254;23;20023;-88
2023/12/14 07:47:09;;;;;;;9.50;4.47;;;;;;;;;;6240650;22;19992;-91
2023/12/14 07:49:54;;;;;;;8.85;4.13;;;;;;;;;;6242343;22;20046;-88
2023/12/14 07:52:43;;;;;;;7.78;3.85;;;;;;;;;;6244127;22;20177;-90
2023/12/14 07:55:28;;;;;;;10.48;5.22;;;;;;;;;;6243822;23;20058;-88
2023/12/14 07:58:14;;;;;;;9.27;4.30;;;;;;;;;;6250374;23;19996;-88
2023/12/14 08:00:59;;;;;;;9.52;4.90;;;;;;;;;;6240719;23;19996;-87
2023/12/14 08:03:44;;;;;;;4.75;3.28;;;;;;;;;;6219177;23;19993;-87
2023/12/14 08:06:30;;;;;;;7.95;3.20;;;;;;;;;;6220341;23;20400;-86
2023/12/14 08:09:15;;;;;;;5.90;3.33;;;;;;;;;;6219959;22;20000;-87
2023/12/14 08:12:00;;;;;;;8.82;3.55;;;;;;;;;;6219432;23;20337;-86
2023/12/14 08:14:46;;;;;;;7.15;3.42;;;;;;;;;;6219499;23;20000;-88
2023/12/14 08:17:31;;;;;;;5.70;3.28;;;;;;;;;;6218262;23;20047;-85
2023/12/14 08:20:16;;;;;;;10.25;4.82;;;;;;;;;;6217919;23;19996;-89
2023/12/14 08:23:02;;;;;;;10.13;5.40;;;;;;;;;;6217292;23;19996;-88
2023/12/14 08:36:41;;;;;;;8.90;4.00;;;;;;;;;;6241665;23;20095;-86
2023/12/14 08:39:26;;;;;;;5.80;3.58;;;;;;;;;;6217158;23;20003;-88
2023/12/14 08:42:27;;;;;;;9.88;4.38;;;;;;;;;;6218968;23;19999;-89
2023/12/14 08:45:12;;;;;;;8.52;4.55;;;;;;;;;;6216629;23;20030;-88
2023/12/14 08:47:57;;;;;;;5.90;3.83;;;;;;;;;;6217577;23;19996;-89
2023/12/14 08:50:43;;;;;;;8.30;4.22;;;;;;;;;;6216510;23;20000;-88
2023/12/14 08:53:29;;;;;;;8.75;4.50;;;;;;;;;;6223710;23;20007;-89
2023/12/14 08:56:15;;;;;;;8.85;4.00;;;;;;;;;;6219179;23;20069;-90
2023/12/14 08:59:03;;;;;;;11.55;3.97;;;;;;;;;;6217228;23;20057;-88
2023/12/14 09:02:05;;;;;;;9.27;4.50;;;;;;;;;;6239028;23;20016;-90
2023/12/14 09:04:51;;;;;;;8.43;4.80;;;;;;;;;;6218486;23;20592;-87
2023/12/14 09:07:36;;;;;;;7.35;4.32;;;;;;;;;;6219607;23;20503;-88
2023/12/14 09:10:27;;;;;;;8.07;3.85;;;;;;;;;;6214669;23;20002;-88
2023/12/14 09:13:12;;;;;;;8.02;3.80;;;;;;;;;;6214110;23;20436;-88
2023/12/14 09:15:57;;;;;;;7.57;3.78;;;;;;;;;;6216353;23;20096;-88
2023/12/14 09:18:43;;;;;;;8.48;4.38;;;;;;;;;;6217565;23;20058;-91
2023/12/14 09:25:01;;;;;;;9.25;5.90;;;;;;;;;;6177734;23;19996;-89
2023/12/14 09:27:46;;;;;;;7.70;5.10;;;;;;;;;;6217194;23;20152;-88
2023/12/14 09:30:31;;;;;;;10.35;4.65;;;;;;;;;;6216648;23;20004;-89
2023/12/14 09:33:30;;;;;;;;;;;;;;;;;;;;;
2023/12/14 09:40:30;;;;;;;7.15;3.90;;;;;;;;;;6115908;23;20005;-88
2023/12/14 09:46:38;;;;;;;7.43;4.82;;;;;;;;;;6118288;23;20049;-91
2023/12/14 09:49:28;;;;;;;7.47;4.88;;;;;;;;;;6144755;23;20045;-90
2023/12/14 09:52:24;;;;;;;;;;;;;;;;;;;;;
2023/12/14 10:06:13;;;;;;;7.95;4.72;;;;;;;;;;6055793;23;20010;-85
2023/12/14 10:09:01;;;;;;;10.45;5.40;;;;;;;;;;6067654;23;20061;-88
2023/12/14 10:12:05;;;;;;;9.50;6.03;;;;;;;;;;6062710;23;20077;-90
2023/12/14 10:18:36;;;;;;;;;;;;;;;;;;;;;
2023/12/14 10:45:33;;;;;;;9.73;5.70;;;;;;;;;;6175264;23;20004;-90
2023/12/14 10:58:46;;;;;;;9.27;5.15;;;;;;;;;;6147843;23;20085;-88
2023/12/14 11:01:57;;;;;;;10.13;4.75;;;;;;;;;;6126469;23;20033;-90
2023/12/14 11:05:05;;;;;;;9.68;5.18;;;;;;;;;;6127556;23;20343;-88
2023/12/14 11:16:23;;;;;;;8.75;4.85;;;;;;;;;;6199701;23;20020;-86
2023/12/14 11:19:20;;;;;;;5.78;3.45;;;;;;;;;;6215701;23;20004;-89
2023/12/14 11:22:10;;;;;;;5.50;3.35;;;;;;;;;;6218533;23;20008;-89
2023/12/14 11:24:56;;;;;;;7.25;3.95;;;;;;;;;;6220916;23;20409;-90
2023/12/14 11:27:59;;;;;;;8.18;3.90;;;;;;;;;;6220170;23;20000;-90
2023/12/14 11:30:50;;;;;;;5.40;3.58;;;;;;;;;;6219004;23;20302;-89
2023/12/14 11:34:00;;;;;;;8.30;3.90;;;;;;;;;;6214534;23;20302;-90
2023/12/14 11:36:48;;;;;;;8.07;3.95;;;;;;;;;;6219003;23;19996;-91
2023/12/14 11:39:36;;;;;;;7.90;4.00;;;;;;;;;;6219251;23;20031;-90
2023/12/14 11:42:31;;;;;;;8.23;4.05;;;;;;;;;;6219332;23;20542;-89
2023/12/14 11:45:17;;;;;;;7.80;3.88;;;;;;;;;;6219403;23;19992;-88
2023/12/14 11:48:05;;;;;;;10.45;4.07;;;;;;;;;;6216589;23;19996;-88
2023/12/14 11:50:51;;;;;;;8.55;3.65;;;;;;;;;;6217512;23;20352;-87
2023/12/14 11:53:39;;;;;;;6.93;3.25;;;;;;;;;;6218846;23;20433;-89
2023/12/14 11:56:25;;;;;;;6.38;3.00;;;;;;;;;;6218365;23;20004;-89
2023/12/14 11:59:10;;;;;;;5.50;3.20;;;;;;;;;;6218311;23;19993;-89
2023/12/14 12:01:57;;;;;;;5.20;2.53;;;;;;;;;;6189029;23;19993;-88
2023/12/14 12:04:49;;;;;;;3.42;2.35;;;;;;;;;;6213007;23;20000;-89
2023/12/14 12:07:37;;;;;;;3.65;1.90;;;;;;;;;;6218111;23;20306;-91
2023/12/14 12:10:50;;;;;;;5.18;2.67;;;;;;;;;;6196303;23;20076;-92
2023/12/14 12:13:36;;;;;;;7.18;2.40;;;;;;;;;;6218564;23;20038;-89
2023/12/14 12:16:55;;;;;;;;;;;;;;;;;;;;;
2023/12/14 12:20:02;;;;;;;2.90;1.60;;;;;;;;;;6207639;23;20054;-88
2023/12/14 12:23:19;;;;;;;5.82;1.83;;;;;;;;;;6220130;23;20056;-90
2023/12/14 12:26:12;;;;;;;4.72;1.88;;;;;;;;;;6153806;23;20000;-88
2023/12/14 12:28:57;;;;;;;5.22;1.98;;;;;;;;;;6217472;23;20052;-88
2023/12/14 12:31:50;;;;;;;3.03;1.73;;;;;;;;;;6217618;23;20038;-89
2023/12/14 12:34:38;;;;;;;2.67;1.30;;;;;;;;;;6217282;23;20000;-89
2023/12/14 12:37:23;;;;;;;1.98;1.45;;;;;;;;;;6217783;23;20004;-88
2023/12/14 12:40:09;;;;;;;4.13;1.73;;;;;;;;;;6218282;23;20087;-89
2023/12/14 12:42:57;;;;;;;4.82;1.80;;;;;;;;;;6219659;23;20000;-90
2023/12/14 12:45:42;;;;;;;3.20;1.73;;;;;;;;;;6217039;23;20043;-90
2023/12/14 12:48:28;;;;;;;3.65;1.63;;;;;;;;;;6218615;23;20000;-89
2023/12/14 12:51:13;;;;;;;3.00;1.60;;;;;;;;;;6218051;23;20340;-88
2023/12/14 12:54:03;;;;;;;3.05;1.98;;;;;;;;;;6197450;23;20052;-87
2023/12/14 12:56:56;;;;;;;4.25;2.15;;;;;;;;;;6215836;23;20000;-91
2023/12/14 12:59:45;;;;;;;3.03;1.70;;;;;;;;;;6218019;23;20419;-89
2023/12/14 13:02:30;;;;;;;2.50;1.70;;;;;;;;;;6196669;23;20439;-88
2023/12/14 13:05:16;;;;;;;2.90;1.92;;;;;;;;;;6217806;23;20011;-87
2023/12/14 13:08:01;;;;;;;5.00;2.08;;;;;;;;;;6196116;23;20004;-87
2023/12/14 13:10:48;;;;;;;2.80;1.75;;;;;;;;;;6217901;23;20075;-87
2023/12/14 13:13:33;;;;;;;3.72;1.70;;;;;;;;;;6217158;23;20000;-86
2023/12/14 13:16:18;;;;;;;4.85;1.70;;;;;;;;;;6215907;23;20432;-89
2023/12/14 13:19:06;;;;;;;6.78;2.60;;;;;;;;;;6217038;23;20002;-90
2023/12/14 13:21:56;;;;;;;4.30;2.33;;;;;;;;;;6216094;23;20000;-88
2023/12/14 13:24:42;;;;;;;3.40;1.60;;;;;;;;;;6215059;23;20008;-88
2023/12/14 13:27:47;;;;;;;2.85;1.63;;;;;;;;;;6216942;23;20008;-89
2023/12/14 13:30:32;;;;;;;3.85;1.85;;;;;;;;;;6215509;23;20000;-88
2023/12/14 13:33:18;;;;;;;3.60;1.52;;;;;;;;;;6217018;23;20038;-87
2023/12/14 13:36:03;;;;;;;3.30;1.40;;;;;;;;;;6217101;23;20172;-88
2023/12/14 13:38:49;;;;;;;5.47;2.45;;;;;;;;;;6216373;23;20145;-87
2023/12/14 13:41:34;;;;;;;2.70;1.85;;;;;;;;;;6216648;23;20083;-87
2023/12/14 13:44:19;;;;;;;8.43;1.70;;;;;;;;;;6224914;23;20001;-88
2023/12/14 13:47:05;;;;;;;4.72;1.40;;;;;;;;;;6220183;23;20074;-88
2023/12/14 13:49:50;;;;;;;4.03;1.38;;;;;;;;;;6218521;23;20031;-86
2023/12/14 13:52:35;;;;;;;6.45;2.22;;;;;;;;;;6197175;23;20461;-88
2023/12/14 13:55:21;;;;;;;2.22;1.65;;;;;;;;;;6222824;23;20011;-89
2023/12/14 13:58:07;;;;;;;4.40;2.22;;;;;;;;;;6222442;23;20004;-89
2023/12/14 14:00:52;;;;;;;3.92;2.20;;;;;;;;;;6217896;23;20508;-87
2023/12/14 14:03:38;;;;;;;3.05;1.85;;;;;;;;;;6217137;23;20000;-89
2023/12/14 14:06:23;;;;;;;3.78;1.83;;;;;;;;;;6195941;23;19996;-85
2023/12/14 14:09:08;;;;;;;4.53;2.35;;;;;;;;;;6216384;22;20061;-86
2023/12/14 14:11:54;;;;;;;4.55;2.17;;;;;;;;;;6216430;23;20000;-89
2023/12/14 14:14:39;;;;;;;2.85;1.88;;;;;;;;;;6217105;23;20011;-87
2023/12/14 14:17:24;;;;;;;5.38;2.75;;;;;;;;;;6215639;23;20016;-88
2023/12/14 14:20:10;;;;;;;5.35;2.72;;;;;;;;;;6193963;23;20003;-85
2023/12/14 14:22:56;;;;;;;7.78;3.38;;;;;;;;;;6214656;23;20008;-84
2023/12/14 14:25:45;;;;;;;5.53;3.53;;;;;;;;;;6215272;23;20007;-86
2023/12/14 14:28:30;;;;;;;5.97;4.05;;;;;;;;;;6215502;23;20070;-86
2023/12/14 14:31:15;;;;;;;7.00;4.10;;;;;;;;;;6216088;23;20067;-86
2023/12/14 14:34:01;;;;;;;7.30;4.47;;;;;;;;;;6216091;23;20004;-86
2023/12/14 14:36:49;;;;;;;10.32;6.10;;;;;;;;;;6215289;23;20062;-86
2023/12/14 14:39:34;;;;;;;10.63;5.72;;;;;;;;;;6215101;23;19996;-86
2023/12/14 14:42:19;;;;;;;13.77;6.57;;;;;;;;;;6215580;23;19996;-86
2023/12/14 14:45:05;;;;;;;11.70;6.35;;;;;;;;;;6215608;23;20000;-86
2023/12/14 14:47:50;;;;;;;11.80;6.10;;;;;;;;;;6215325;23;20086;-85
2023/12/14 14:50:36;;;;;;;10.68;6.35;;;;;;;;;;6215543;23;20010;-86
2023/12/14 14:53:21;;;;;;;9.90;6.25;;;;;;;;;;6215364;23;20004;-85
2023/12/14 14:56:06;;;;;;;11.90;5.88;;;;;;;;;;6214624;23;20001;-86
2023/12/14 14:58:52;;;;;;;10.75;6.75;;;;;;;;;;6213824;23;20061;-85
2023/12/14 15:01:47;;;;;;;;;;;;;;;;;;;;;
2023/12/14 15:04:33;;;;;;;10.57;6.28;;;;;;;;;;6216630;23;20078;-85
2023/12/14 15:07:19;;;;;;;9.57;5.65;;;;;;;;;;6215266;23;20040;-83
2023/12/14 15:10:04;;;;;;;9.95;6.72;;;;;;;;;;6215420;23;20011;-84
2023/12/14 15:12:50;;;;;;;10.70;6.32;;;;;;;;;;6215365;23;20102;-87
2023/12/14 15:15:36;;;;;;;11.05;5.63;;;;;;;;;;6215524;23;20055;-85
2023/12/14 15:18:21;;;;;;;9.68;6.20;;;;;;;;;;6215232;23;20043;-85
2023/12/14 15:21:10;;;;;;;10.88;6.85;;;;;;;;;;6215045;23;19999;-87
2023/12/14 15:23:55;;;;;;;10.27;6.20;;;;;;;;;;6213886;23;20007;-86
2023/12/14 15:26:41;;;;;;;12.82;6.75;;;;;;;;;;6215225;23;20007;-88
2023/12/14 15:29:26;;;;;;;10.30;6.78;;;;;;;;;;6215999;23;20336;-86
2023/12/14 15:32:12;;;;;;;17.45;8.35;;;;;;;;;;6214774;23;20011;-85
2023/12/14 15:34:57;;;;;;;10.77;6.18;;;;;;;;;;6234232;23;19989;-87
2023/12/14 15:37:42;;;;;;;12.30;7.00;;;;;;;;;;6245200;22;20039;-87
2023/12/14 15:40:28;;;;;;;11.30;6.25;;;;;;;;;;6244307;22;19989;-85
2023/12/14 15:43:14;;;;;;;11.20;5.78;;;;;;;;;;6244582;22;19996;-86
2023/12/14 15:45:59;;;;;;;13.20;7.10;;;;;;;;;;6246307;23;20003;-87
2023/12/14 15:48:46;;;;;;;10.85;6.03;;;;;;;;;;6237028;23;20000;-86
2023/12/14 15:51:31;;;;;;;12.75;6.97;;;;;;;;;;6198660;23;20006;-85
2023/12/14 15:54:17;;;;;;;13.90;7.55;;;;;;;;;;6218770;23;20080;-86
2023/12/14 15:57:02;;;;;;;16.63;8.63;;;;;;;;;;6217977;23;20000;-86
2023/12/14 15:59:48;;;;;;;14.13;7.57;;;;;;;;;;6218155;23;20397;-86
2023/12/14 16:02:33;;;;;;;11.90;6.68;;;;;;;;;;6217923;23;20000;-85
2023/12/14 16:05:18;;;;;;;14.43;7.28;;;;;;;;;;6217743;23;20007;-87
2023/12/14 16:08:04;;;;;;;10.48;6.38;;;;;;;;;;6217125;23;20008;-86
2023/12/14 16:10:50;;;;;;;11.60;6.25;;;;;;;;;;6216197;23;20004;-86
2023/12/14 16:13:36;;;;;;;11.45;6.97;;;;;;;;;;6216287;23;19996;-87
2023/12/14 16:16:21;;;;;;;13.98;7.70;;;;;;;;;;6215028;23;20004;-85
2023/12/14 16:19:07;;;;;;;13.05;8.07;;;;;;;;;;6215947;23;20015;-84
2023/12/14 16:21:53;;;;;;;11.57;6.80;;;;;;;;;;6216241;23;20007;-86
2023/12/14 16:24:38;;;;;;;12.40;5.85;;;;;;;;;;6218845;23;20085;-86
2023/12/14 16:27:23;;;;;;;12.15;5.75;;;;;;;;;;6216978;23;20002;-85
2023/12/14 16:30:09;;;;;;;11.93;6.53;;;;;;;;;;6218046;23;20516;-83
2023/12/14 16:32:56;;;;;;;11.00;6.85;;;;;;;;;;6217526;23;20394;-84
2023/12/14 16:35:41;;;;;;;11.77;6.85;;;;;;;;;;6216621;23;20007;-85
2023/12/14 16:38:27;;;;;;;11.07;7.03;;;;;;;;;;6216490;23;20001;-85
2023/12/14 16:41:12;;;;;;;11.10;6.40;;;;;;;;;;6216062;23;19996;-85
2023/12/14 16:43:57;;;;;;;10.40;6.32;;;;;;;;;;6216425;23;20012;-85
2023/12/14 16:46:43;;;;;;;11.60;6.47;;;;;;;;;;6216304;23;20000;-83
2023/12/14 16:49:28;;;;;;;13.07;6.60;;;;;;;;;;6216193;23;20000;-83
2023/12/14 16:52:17;;;;;;;11.45;6.93;;;;;;;;;;6216210;23;20457;-84
2023/12/14 16:55:03;;;;;;;17.42;7.55;;;;;;;;;;6216717;23;20326;-84
2023/12/14 16:57:48;;;;;;;12.80;7.03;;;;;;;;;;6215921;23;20464;-85
2023/12/14 17:00:34;;;;;;;11.32;6.32;;;;;;;;;;6216492;23;20012;-85
2023/12/14 17:03:19;;;;;;;12.00;6.30;;;;;;;;;;6215100;23;19996;-80
2023/12/14 17:06:10;;;;;;;10.95;5.78;;;;;;;;;;6215412;23;20511;-79
2023/12/14 17:08:55;;;;;;;11.45;5.95;;;;;;;;;;6215840;23;20369;-87
2023/12/14 17:11:41;;;;;;;11.23;6.50;;;;;;;;;;6215357;23;20011;-79
2023/12/14 17:14:26;;;;;;;7.88;4.63;;;;;;;;;;6216076;23;20032;-83
2023/12/14 17:17:11;;;;;;;10.25;5.75;;;;;;;;;;6215966;23;20492;-80
2023/12/14 17:19:57;;;;;;;6.50;3.75;;;;;;;;;;6215665;23;20004;-79
2023/12/14 17:22:42;;;;;;;11.25;4.97;;;;;;;;;;6215882;23;19996;-79
2023/12/14 17:25:28;;;;;;;6.70;3.38;;;;;;;;;;6194802;23;20000;-79
2023/12/14 17:28:13;;;;;;;6.90;4.05;;;;;;;;;;6215154;23;20090;-82
2023/12/14 17:30:58;;;;;;;6.32;3.22;;;;;;;;;;6215924;23;20061;-81
2023/12/14 17:33:44;;;;;;;7.35;3.33;;;;;;;;;;6214902;23;20295;-83
2023/12/14 17:36:29;;;;;;;6.28;3.80;;;;;;;;;;6214868;23;20012;-82
2023/12/14 17:39:16;;;;;;;5.20;2.50;;;;;;;;;;6215681;23;20044;-83
2023/12/14 17:42:01;;;;;;;3.78;2.20;;;;;;;;;;6215401;23;20397;-81
2023/12/14 17:44:46;;;;;;;5.50;2.45;;;;;;;;;;6215171;23;20000;-80
2023/12/14 17:47:31;;;;;;;3.97;2.05;;;;;;;;;;6214541;23;20008;-80
2023/12/14 17:50:17;;;;;;;2.33;1.50;;;;;;;;;;6214464;23;20071;-81
2023/12/14 17:53:02;;;;;;;4.63;2.40;;;;;;;;;;6213811;23;20015;-84
2023/12/14 17:55:47;;;;;;;5.68;2.67;;;;;;;;;;6214394;23;20008;-83
2023/12/14 17:58:33;;;;;;;4.70;2.03;;;;;;;;;;6214503;23;20003;-81
2023/12/14 18:01:18;;;;;;;3.55;1.95;;;;;;;;;;6214806;23;20045;-82
2023/12/14 18:04:04;;;;;;;3.63;2.38;;;;;;;;;;6214015;23;20022;-82
2023/12/14 18:06:49;;;;;;;3.90;1.98;;;;;;;;;;6214341;23;20062;-82
2023/12/14 18:09:34;;;;;;;5.30;2.17;;;;;;;;;;6213792;22;20053;-82
2023/12/14 18:12:20;;;;;;;3.08;1.95;;;;;;;;;;6211037;23;20008;-82
2023/12/14 18:15:06;;;;;;;3.58;2.45;;;;;;;;;;6213746;23;20008;-82
2023/12/14 18:17:51;;;;;;;4.30;2.67;;;;;;;;;;6213658;23;20030;-83
2023/12/14 18:20:36;;;;;;;7.22;2.30;;;;;;;;;;6214144;23;20443;-83
2023/12/14 18:23:21;;;;;;;5.03;2.75;;;;;;;;;;6214515;23;20314;-82
2023/12/14 18:26:07;;;;;;;5.93;3.47;;;;;;;;;;6215082;23;20004;-82
2023/12/14 18:28:52;;;;;;;6.10;3.60;;;;;;;;;;6214392;23;20036;-83
2023/12/14 18:31:37;;;;;;;6.07;3.60;;;;;;;;;;6214608;23;20030;-82
2023/12/14 18:34:24;;;;;;;6.15;3.72;;;;;;;;;;6215526;23;20087;-82
2023/12/14 18:37:14;;;;;;;6.50;3.75;;;;;;;;;;6214872;23;20004;-82
2023/12/14 18:39:59;;;;;;;8.63;4.55;;;;;;;;;;6215180;23;20000;-83
2023/12/14 18:42:44;;;;;;;9.20;4.90;;;;;;;;;;6214831;23;20007;-82
2023/12/14 18:45:30;;;;;;;9.27;4.55;;;;;;;;;;6215237;23;20046;-82
2023/12/14 18:48:15;;;;;;;9.82;5.30;;;;;;;;;;6214120;23;20000;-86
2023/12/14 18:51:00;;;;;;;8.27;4.50;;;;;;;;;;6214606;23;20003;-82
2023/12/14 18:53:46;;;;;;;9.25;4.25;;;;;;;;;;6215804;23;20022;-83
2023/12/14 18:56:31;;;;;;;15.30;6.93;;;;;;;;;;6216695;23;20024;-83
2023/12/14 18:59:17;;;;;;;11.32;5.85;;;;;;;;;;6214081;23;20110;-85
2023/12/14 19:02:03;;;;;;;8.85;4.80;;;;;;;;;;6215746;23;20003;-83
2023/12/14 19:04:49;;;;;;;10.77;5.45;;;;;;;;;;6214297;23;20102;-83
2023/12/14 19:07:34;;;;;;;16.65;5.32;;;;;;;;;;6216161;23;20325;-83
2023/12/14 19:10:19;;;;;;;9.25;5.25;;;;;;;;;;6213825;23;20087;-82
2023/12/14 19:13:05;;;;;;;8.18;4.65;;;;;;;;;;6214951;23;20110;-85
2023/12/14 19:15:50;;;;;;;9.68;5.43;;;;;;;;;;6215121;23;20381;-84
2023/12/14 19:18:35;;;;;;;10.00;5.07;;;;;;;;;;6214269;23;20256;-84
2023/12/14 19:21:21;;;;;;;9.30;4.95;;;;;;;;;;6216381;23;20069;-84
2023/12/14 19:24:07;;;;;;;10.52;5.93;;;;;;;;;;6217322;23;20003;-83
2023/12/14 19:26:52;;;;;;;9.73;5.40;;;;;;;;;;6216731;23;20042;-85
2023/12/14 19:29:37;;;;;;;7.65;4.65;;;;;;;;;;6217561;23;20062;-84
2023/12/14 19:32:26;;;;;;;9.70;5.38;;;;;;;;;;6217609;23;20004;-90
2023/12/14 19:35:11;;;;;;;7.32;4.40;;;;;;;;;;6196675;23;20019;-87
2023/12/14 19:37:57;;;;;;;9.35;5.00;;;;;;;;;;6213760;23;20057;-81
2023/12/14 19:40:42;;;;;;;8.60;5.43;;;;;;;;;;6215991;23;19999;-82
2023/12/14 19:43:27;;;;;;;9.50;5.43;;;;;;;;;;6216449;23;20067;-87
2023/12/14 19:46:13;;;;;;;10.18;5.82;;;;;;;;;;6215464;23;20004;-84
2023/12/14 19:48:59;;;;;;;10.23;5.75;;;;;;;;;;6215854;23;20138;-85
2023/12/14 19:51:44;;;;;;;10.43;5.88;;;;;;;;;;6194928;23;20090;-86
2023/12/14 19:54:29;;;;;;;12.65;6.55;;;;;;;;;;6215187;23;20075;-86
2023/12/14 19:57:14;;;;;;;11.32;5.78;;;;;;;;;;6214808;23;20011;-85
2023/12/14 20:00:00;;;;;;;13.27;6.60;;;;;;;;;;6214995;23;20007;-82
2023/12/14 20:02:45;;;;;;;12.65;6.32;;;;;;;;;;6194813;23;20058;-84
2023/12/14 20:05:30;;;;;;;9.75;5.55;;;;;;;;;;6216420;23;20027;-83
2023/12/14 20:08:15;;;;;;;9.73;5.15;;;;;;;;;;6214473;23;20007;-83
2023/12/14 20:11:01;;;;;;;10.15;5.85;;;;;;;;;;6215637;23;20004;-84
2023/12/14 20:13:46;;;;;;;10.75;5.80;;;;;;;;;;6215165;23;20030;-83
2023/12/14 20:16:31;;;;;;;9.57;5.32;;;;;;;;;;6213836;23;20016;-83
2023/12/14 20:19:16;;;;;;;9.57;5.85;;;;;;;;;;6214349;23;20031;-83
2023/12/14 20:22:02;;;;;;;9.95;5.30;;;;;;;;;;6215025;23;19997;-83
2023/12/14 20:24:47;;;;;;;9.32;5.40;;;;;;;;;;6215516;23;20049;-83
2023/12/14 20:27:33;;;;;;;7.63;4.80;;;;;;;;;;6213957;23;20065;-84
2023/12/14 20:30:18;;;;;;;8.40;4.53;;;;;;;;;;6209764;23;20087;-83
2023/12/14 20:33:04;;;;;;;7.45;4.47;;;;;;;;;;6214322;23;20000;-84
2023/12/14 20:35:49;;;;;;;9.15;5.10;;;;;;;;;;6214080;23;20003;-84
2023/12/14 20:38:35;;;;;;;7.32;3.80;;;;;;;;;;6213730;23;19996;-82
2023/12/14 20:41:26;;;;;;;7.97;4.32;;;;;;;;;;6214697;23;20000;-84
2023/12/14 20:44:11;;;;;;;6.82;4.35;;;;;;;;;;6212275;23;20399;-83
2023/12/14 20:46:56;;;;;;;9.10;5.55;;;;;;;;;;6213794;23;20325;-82
2023/12/14 20:49:42;;;;;;;9.32;5.05;;;;;;;;;;6214027;23;20452;-84
2023/12/14 20:52:27;;;;;;;8.00;4.28;;;;;;;;;;6214002;23;19996;-84
2023/12/14 20:55:12;;;;;;;9.68;3.83;;;;;;;;;;6213054;23;20031;-83